Terminal Aerodrome Forecast
Issued by NWS

Home | Current Version | Previous Version | Text Only | Print | Product List | Glossary On
Versions: 1 2 3 4 5 6 7 8 9 10 11 12 13 14 15 16 17 18 19 20 21 22 23 24 25 26 27
000
FTUS45 KREV 101700
TAFCXP
TAF
KCXP 101720Z 1018/1118 10007KT P6SM SCT120
     FM102200 VRB06KT P6SM VCTS SCT080CB BKN120
     FM110100 VRB06KT P6SM VCSH SCT070 BKN120
     FM110500 VRB04KT P6SM BKN120=

USA.gov is the U.S. government's official web portal to all federal, state and local government web resources and services.